Terminal Aerodrome Forecast
Issued by NWS

Home | Current Version | Previous Version | Text Only | Print | Product List | Glossary On
Versions: 1 2 3 4 5 6 7 8 9 10 11 12 13 14 15 16 17 18 19 20
000
FTUS45 KBOI 241120
TAFTWF
TAF
KTWF 241120Z 2412/2512 18012KT P6SM OVC080
     FM241300 21010KT P6SM VCSH SCT040 OVC060
     FM241500 23010KT P6SM -RA BKN040 OVC060
     FM242000 25015KT P6SM -SHRA SCT050 OVC100
     FM250500 19008KT P6SM -SHRA BKN035 OVC050=

USA.gov is the U.S. government's official web portal to all federal, state and local government web resources and services.